createdAt,value
2023-05-13T00:00:00.058Z,11.62
2023-05-13T00:02:27.959Z,11.52
2023-05-13T00:04:55.868Z,11.41
2023-05-13T00:07:23.798Z,11.37
2023-05-13T00:09:51.859Z,11.34
2023-05-13T00:12:21.413Z,11.31
2023-05-13T00:14:49.537Z,11.30
2023-05-13T00:17:17.306Z,11.25
2023-05-13T00:19:45.093Z,11.27
2023-05-13T00:22:13.067Z,11.33
2023-05-13T00:24:40.996Z,11.38
2023-05-13T00:27:08.728Z,11.35
2023-05-13T00:29:37.833Z,11.32
2023-05-13T00:32:06.377Z,11.28
2023-05-13T00:34:34.268Z,11.24
2023-05-13T00:37:01.938Z,11.26
2023-05-13T00:39:31.446Z,11.26
2023-05-13T00:41:59.743Z,11.25
2023-05-13T00:44:28.452Z,11.23
2023-05-13T00:46:57.705Z,11.21
2023-05-13T00:49:28.493Z,11.20
2023-05-13T00:51:56.263Z,11.12
2023-05-13T00:54:24.221Z,11.13
2023-05-13T00:56:56.658Z,11.14
2023-05-13T00:59:27.128Z,11.10
2023-05-13T01:02:02.615Z,11.15
2023-05-13T01:04:43.566Z,11.13
2023-05-13T01:07:22.553Z,11.09
2023-05-13T01:10:02.625Z,11.00
2023-05-13T01:12:33.631Z,11.05
2023-05-13T01:15:08.411Z,11.06
2023-05-13T01:17:43.591Z,11.09
2023-05-13T01:20:13.484Z,11.12
2023-05-13T01:22:42.701Z,11.14
2023-05-13T01:25:11.906Z,11.15
2023-05-13T01:27:40.318Z,11.08
2023-05-13T01:30:11.267Z,11.08
2023-05-13T01:32:39.953Z,11.06
2023-05-13T01:35:10.188Z,11.06
2023-05-13T01:37:43.478Z,11.06
2023-05-13T01:40:28.102Z,11.03
2023-05-13T01:43:02.032Z,10.92
2023-05-13T01:45:30.738Z,10.87
2023-05-13T01:47:59.650Z,10.92
2023-05-13T01:50:33.869Z,10.96
2023-05-13T01:53:03.207Z,10.96
2023-05-13T01:55:31.106Z,10.95
2023-05-13T01:58:01.264Z,10.88
2023-05-13T02:00:30.171Z,10.95
2023-05-13T02:02:57.975Z,10.95
2023-05-13T02:05:25.797Z,10.88
2023-05-13T02:07:54.616Z,10.85
2023-05-13T02:10:24.206Z,10.77
2023-05-13T02:12:52.166Z,10.77
2023-05-13T02:15:20.062Z,10.70
2023-05-13T02:17:48.399Z,10.73
2023-05-13T02:20:16.954Z,10.69
2023-05-13T02:22:44.796Z,10.70
2023-05-13T02:25:12.745Z,10.71
2023-05-13T02:27:42.205Z,10.71
2023-05-13T02:30:10.933Z,10.69
2023-05-13T02:32:42.649Z,10.68
2023-05-13T02:35:11.601Z,10.67
2023-05-13T02:37:40.095Z,10.65
2023-05-13T02:40:09.459Z,10.63
2023-05-13T02:42:37.456Z,10.59
2023-05-13T02:45:08.391Z,10.53
2023-05-13T02:47:39.166Z,10.56
2023-05-13T02:50:10.165Z,10.62
2023-05-13T02:52:40.440Z,10.67
2023-05-13T02:55:09.848Z,10.71
2023-05-13T02:57:38.684Z,10.83
2023-05-13T03:00:09.602Z,10.85
2023-05-13T03:02:38.643Z,10.78
2023-05-13T03:05:07.823Z,10.76
2023-05-13T03:07:35.921Z,10.74
2023-05-13T03:10:03.862Z,10.71
2023-05-13T03:12:32.006Z,10.72
2023-05-13T03:15:00.004Z,10.68
2023-05-13T03:17:30.854Z,10.68
2023-05-13T03:19:59.505Z,10.64
2023-05-13T03:22:27.843Z,10.57
2023-05-13T03:24:57.228Z,10.57
2023-05-13T03:27:29.235Z,10.56
2023-05-13T03:29:57.211Z,10.58
2023-05-13T03:32:30.358Z,10.52
2023-05-13T03:35:02.316Z,10.48
2023-05-13T03:37:32.644Z,10.48
2023-05-13T03:40:00.383Z,10.45
2023-05-13T03:42:30.542Z,10.46
2023-05-13T03:45:01.759Z,10.50
2023-05-13T03:47:29.858Z,10.52
2023-05-13T03:50:03.152Z,10.57
2023-05-13T03:52:39.488Z,10.61
2023-05-13T03:55:08.246Z,10.61
2023-05-13T03:57:36.163Z,10.66
2023-05-13T04:00:04.850Z,10.66
2023-05-13T04:02:42.817Z,10.70
2023-05-13T04:05:13.869Z,10.67
2023-05-13T04:07:42.082Z,10.71
2023-05-13T04:10:17.983Z,10.76
2023-05-13T04:12:45.942Z,10.83
2023-05-13T04:15:13.621Z,10.89
2023-05-13T04:17:41.766Z,10.95
2023-05-13T04:20:10.481Z,10.97
2023-05-13T04:22:39.860Z,10.93
2023-05-13T04:25:08.498Z,10.86
2023-05-13T04:27:36.264Z,10.86
2023-05-13T04:30:11.973Z,10.78
2023-05-13T04:32:41.958Z,10.73
2023-05-13T04:35:11.493Z,10.75
2023-05-13T04:37:41.569Z,10.72
2023-05-13T04:40:14.258Z,10.68
2023-05-13T04:42:42.029Z,10.66
2023-05-13T04:45:10.851Z,10.70
2023-05-13T04:47:39.011Z,10.76
2023-05-13T04:50:08.021Z,10.85
2023-05-13T04:52:37.409Z,10.91
2023-05-13T04:55:07.935Z,10.97
2023-05-13T04:57:35.888Z,11.07
2023-05-13T05:00:05.430Z,11.16
2023-05-13T05:02:36.208Z,11.30
2023-05-13T05:05:05.238Z,11.38
2023-05-13T05:07:32.974Z,11.51
2023-05-13T05:10:00.857Z,11.69
2023-05-13T05:12:32.390Z,11.79
2023-05-13T05:15:00.233Z,11.87
2023-05-13T05:17:32.750Z,11.89
2023-05-13T05:20:03.296Z,11.88
2023-05-13T05:22:31.443Z,11.89
2023-05-13T05:24:59.519Z,11.92
2023-05-13T05:27:27.237Z,11.98
2023-05-13T05:29:56.492Z,12.14
2023-05-13T05:32:24.785Z,12.09
2023-05-13T05:34:52.919Z,12.11
2023-05-13T05:37:21.108Z,12.08
2023-05-13T05:39:48.948Z,12.08
2023-05-13T05:42:16.993Z,12.13
2023-05-13T05:44:44.821Z,12.18
2023-05-13T05:47:14.121Z,12.31
2023-05-13T05:49:42.244Z,12.32
2023-05-13T05:52:11.265Z,12.32
2023-05-13T05:54:39.449Z,12.36
2023-05-13T05:57:07.636Z,12.47
2023-05-13T05:59:35.946Z,12.55
2023-05-13T06:02:04.418Z,12.67
2023-05-13T06:04:33.785Z,12.85
2023-05-13T06:07:01.912Z,12.95
2023-05-13T06:09:31.983Z,12.92
2023-05-13T06:12:00.781Z,12.94
2023-05-13T06:14:28.609Z,12.94
2023-05-13T06:16:56.850Z,12.93
2023-05-13T06:19:25.568Z,12.96
2023-05-13T06:21:55.803Z,13.05
2023-05-13T06:24:24.835Z,13.10
2023-05-13T06:26:56.132Z,13.10
2023-05-13T06:29:24.154Z,13.12
2023-05-13T06:31:52.129Z,13.13
2023-05-13T06:34:21.380Z,13.16
2023-05-13T06:36:49.234Z,13.19
2023-05-13T06:39:18.304Z,13.17
2023-05-13T06:41:46.491Z,13.16
2023-05-13T06:44:17.544Z,13.13
2023-05-13T06:46:47.924Z,13.12
2023-05-13T06:49:15.851Z,13.06
2023-05-13T06:51:43.588Z,13.17
2023-05-13T06:54:11.662Z,13.34
2023-05-13T06:56:41.660Z,13.50
2023-05-13T06:59:09.396Z,13.62
2023-05-13T07:01:37.386Z,13.84
2023-05-13T07:04:06.132Z,13.65
2023-05-13T07:06:33.988Z,13.59
2023-05-13T07:09:02.696Z,13.57
2023-05-13T07:11:32.997Z,13.59
2023-05-13T07:14:02.465Z,13.66
2023-05-13T07:16:30.138Z,13.68
2023-05-13T07:18:58.720Z,13.65
2023-05-13T07:21:26.876Z,13.60
2023-05-13T07:23:54.580Z,13.73
2023-05-13T07:26:22.549Z,13.70
2023-05-13T07:28:51.635Z,13.74
2023-05-13T07:31:20.835Z,13.80
2023-05-13T07:33:48.586Z,13.79
2023-05-13T07:36:16.339Z,13.84
2023-05-13T07:38:44.224Z,14.01
2023-05-13T07:41:11.942Z,14.15
2023-05-13T07:43:40.768Z,14.30
2023-05-13T07:46:08.786Z,14.40
2023-05-13T07:48:37.889Z,14.52
2023-05-13T07:51:06.409Z,14.57
2023-05-13T07:53:35.577Z,14.56
2023-05-13T07:56:03.458Z,14.55
2023-05-13T07:58:31.251Z,14.46
2023-05-13T08:00:59.312Z,14.68
2023-05-13T08:03:28.950Z,14.66
2023-05-13T08:05:58.103Z,14.68
2023-05-13T08:08:26.196Z,14.67
2023-05-13T08:10:54.008Z,14.69
2023-05-13T08:13:22.031Z,14.74
2023-05-13T08:15:49.820Z,14.80
2023-05-13T08:18:17.496Z,14.95
2023-05-13T08:20:45.402Z,15.00
2023-05-13T08:23:14.366Z,15.17
2023-05-13T08:25:42.205Z,15.27
2023-05-13T08:28:10.020Z,15.17
2023-05-13T08:30:40.971Z,15.21
2023-05-13T08:33:08.989Z,15.24
2023-05-13T08:35:36.806Z,15.30
2023-05-13T08:38:05.578Z,15.44
2023-05-13T08:40:34.872Z,15.78
2023-05-13T08:43:04.742Z,15.88
2023-05-13T08:45:34.857Z,16.19
2023-05-13T08:48:04.051Z,16.16
2023-05-13T08:50:32.651Z,16.06
2023-05-13T08:53:00.803Z,16.03
2023-05-13T08:55:29.385Z,16.07
2023-05-13T08:57:59.024Z,16.32
2023-05-13T09:00:26.969Z,16.36
2023-05-13T09:02:54.953Z,16.43
2023-05-13T09:05:25.114Z,16.47
2023-05-13T09:07:53.243Z,16.83
2023-05-13T09:10:22.035Z,16.67
2023-05-13T09:12:52.105Z,16.99
2023-05-13T09:15:23.007Z,17.02
2023-05-13T09:17:53.282Z,17.18
2023-05-13T09:20:22.303Z,17.05
2023-05-13T09:22:51.896Z,17.16
2023-05-13T09:25:21.384Z,17.31
2023-05-13T09:27:50.682Z,17.39
2023-05-13T09:30:18.579Z,17.51
2023-05-13T09:33:07.775Z,17.78
2023-05-13T09:35:37.077Z,17.83
2023-05-13T09:38:14.678Z,17.71
2023-05-13T09:40:43.093Z,17.75
2023-05-13T09:43:12.042Z,17.99
2023-05-13T09:45:39.825Z,18.41
2023-05-13T09:48:09.684Z,18.56
2023-05-13T09:50:48.034Z,18.92
2023-05-13T09:53:15.780Z,18.96
2023-05-13T09:55:46.291Z,19.41
2023-05-13T09:58:14.295Z,19.91
2023-05-13T10:00:43.055Z,20.44
2023-05-13T10:03:12.937Z,20.34
2023-05-13T10:05:41.094Z,21.12
2023-05-13T10:08:11.073Z,21.26
2023-05-13T10:10:40.476Z,21.39
2023-05-13T10:13:10.857Z,21.05
2023-05-13T10:15:49.064Z,20.61
2023-05-13T10:18:19.773Z,20.51
2023-05-13T10:20:52.657Z,21.10
2023-05-13T10:23:21.473Z,20.85
2023-05-13T10:25:49.545Z,20.97
2023-05-13T10:28:18.314Z,21.56
2023-05-13T10:30:46.882Z,21.36
2023-05-13T10:33:14.875Z,21.82
2023-05-13T10:35:52.781Z,21.29
2023-05-13T10:38:29.291Z,21.14
2023-05-13T10:41:10.010Z,20.88
2023-05-13T10:43:38.450Z,20.80
2023-05-13T10:46:07.860Z,20.57
2023-05-13T10:48:43.547Z,21.09
2023-05-13T10:51:16.379Z,20.82
2023-05-13T10:53:49.394Z,19.74
2023-05-13T10:56:21.028Z,20.29
2023-05-13T10:58:59.257Z,20.96
2023-05-13T11:01:30.165Z,21.58
2023-05-13T11:03:59.968Z,21.67
2023-05-13T11:06:35.648Z,21.22
2023-05-13T11:09:06.678Z,20.80
2023-05-13T11:11:35.603Z,20.98
2023-05-13T11:14:16.687Z,21.76
2023-05-13T11:16:55.911Z,21.46
2023-05-13T11:19:27.469Z,21.38
2023-05-13T11:21:58.876Z,21.72
2023-05-13T11:24:27.456Z,21.82
2023-05-13T11:26:58.071Z,22.03
2023-05-13T11:29:33.645Z,21.56
2023-05-13T11:32:02.947Z,20.68
2023-05-13T11:34:32.089Z,20.16
2023-05-13T11:37:11.011Z,19.85
2023-05-13T11:39:41.532Z,19.47
2023-05-13T11:42:10.333Z,19.31
2023-05-13T11:44:46.224Z,19.38
2023-05-13T11:47:13.884Z,19.83
2023-05-13T11:49:43.793Z,19.98
2023-05-13T11:52:16.787Z,20.19
2023-05-13T11:54:47.328Z,21.30
2023-05-13T11:57:25.879Z,21.89
2023-05-13T11:59:55.792Z,21.60
2023-05-13T12:02:25.871Z,20.84
2023-05-13T12:04:53.893Z,20.35
2023-05-13T12:07:24.922Z,19.80
2023-05-13T12:09:54.312Z,19.70
2023-05-13T12:12:22.377Z,19.61
2023-05-13T12:14:51.299Z,19.54
2023-05-13T12:17:20.438Z,19.33
2023-05-13T12:20:08.737Z,19.37
2023-05-13T12:22:39.025Z,19.26
2023-05-13T12:25:42.318Z,19.45
2023-05-13T12:28:17.574Z,20.12
2023-05-13T12:30:51.359Z,21.37
2023-05-13T12:33:21.159Z,22.27
2023-05-13T12:35:50.370Z,22.31
2023-05-13T12:38:21.699Z,21.60
2023-05-13T12:40:51.016Z,21.55
2023-05-13T12:43:20.513Z,22.03
2023-05-13T12:45:53.608Z,21.97
2023-05-13T12:48:24.881Z,21.72
2023-05-13T12:50:52.766Z,21.11
2023-05-13T12:53:22.366Z,20.51
2023-05-13T12:55:50.076Z,20.12
2023-05-13T12:58:17.807Z,19.73
2023-05-13T13:00:45.641Z,19.48
2023-05-13T13:03:13.549Z,19.52
2023-05-13T13:05:41.395Z,19.48
2023-05-13T13:08:09.280Z,19.80
2023-05-13T13:10:38.403Z,19.73
2023-05-13T13:13:06.238Z,19.56
2023-05-13T13:15:34.181Z,19.27
2023-05-13T13:18:01.916Z,19.07
2023-05-13T13:20:29.665Z,18.68
2023-05-13T13:22:57.436Z,18.34
2023-05-13T13:25:25.525Z,17.49
2023-05-13T13:27:54.656Z,16.20
2023-05-13T13:30:22.674Z,15.58
2023-05-13T13:32:50.513Z,15.32
2023-05-13T13:35:19.001Z,15.38
2023-05-13T13:37:46.926Z,15.38
2023-05-13T13:40:15.040Z,15.53
2023-05-13T13:42:44.628Z,15.66
2023-05-13T13:45:15.347Z,15.93
2023-05-13T13:47:43.093Z,16.19
2023-05-13T13:50:12.669Z,16.49
2023-05-13T13:52:40.778Z,16.54
2023-05-13T13:55:11.450Z,16.72
2023-05-13T13:57:39.297Z,16.93
2023-05-13T14:00:08.149Z,17.60
2023-05-13T14:02:37.259Z,18.55
2023-05-13T14:05:05.644Z,18.93
2023-05-13T14:07:33.647Z,18.95
2023-05-13T14:10:01.736Z,18.53
2023-05-13T14:12:29.625Z,17.92
2023-05-13T14:14:57.884Z,17.63
2023-05-13T14:17:26.223Z,17.37
2023-05-13T14:19:55.773Z,17.41
2023-05-13T14:22:24.744Z,17.54
2023-05-13T14:24:53.230Z,17.14
2023-05-13T14:27:24.623Z,17.13
2023-05-13T14:29:53.002Z,17.12
2023-05-13T14:32:21.235Z,17.45
2023-05-13T14:34:49.132Z,17.54
2023-05-13T14:37:18.463Z,17.67
2023-05-13T14:39:49.255Z,17.64
2023-05-13T14:42:18.045Z,17.44
2023-05-13T14:44:46.142Z,17.20
2023-05-13T14:47:14.053Z,16.99
2023-05-13T14:49:41.765Z,16.96
2023-05-13T14:52:09.746Z,16.96
2023-05-13T14:54:38.852Z,16.95
2023-05-13T14:57:07.828Z,17.29
2023-05-13T14:59:36.466Z,16.97
2023-05-13T15:02:05.075Z,16.99
2023-05-13T15:04:33.141Z,16.97
2023-05-13T15:07:03.317Z,16.99
2023-05-13T15:09:31.273Z,17.01
2023-05-13T15:12:00.601Z,17.12
2023-05-13T15:14:28.738Z,17.22
2023-05-13T15:16:56.807Z,17.41
2023-05-13T15:19:24.645Z,17.53
2023-05-13T15:21:52.481Z,17.68
2023-05-13T15:24:20.509Z,17.79
2023-05-13T15:26:49.688Z,17.76
2023-05-13T15:29:19.087Z,17.82
2023-05-13T15:31:47.081Z,17.89
2023-05-13T15:34:15.279Z,17.82
2023-05-13T15:36:43.093Z,17.76
2023-05-13T15:39:11.235Z,17.86
2023-05-13T15:41:39.820Z,17.97
2023-05-13T15:44:07.797Z,17.78
2023-05-13T15:46:37.448Z,17.87
2023-05-13T15:49:05.362Z,18.02
2023-05-13T15:51:33.197Z,18.25
2023-05-13T15:54:01.456Z,18.22
2023-05-13T15:56:29.340Z,18.09
2023-05-13T15:58:57.065Z,17.92
2023-05-13T16:01:24.783Z,18.04
2023-05-13T16:03:53.822Z,17.83
2023-05-13T16:06:21.815Z,17.71
2023-05-13T16:08:49.502Z,17.51
2023-05-13T16:11:18.141Z,17.65
2023-05-13T16:13:46.376Z,17.60
2023-05-13T16:16:14.235Z,17.68
2023-05-13T16:18:43.165Z,17.57
2023-05-13T16:21:12.774Z,17.51
2023-05-13T16:23:40.695Z,17.40
2023-05-13T16:26:08.403Z,17.44
2023-05-13T16:28:36.105Z,17.40
2023-05-13T16:31:04.256Z,17.36
2023-05-13T16:33:33.330Z,17.42
2023-05-13T16:36:01.083Z,17.36
2023-05-13T16:38:30.835Z,17.31
2023-05-13T16:40:58.597Z,17.43
2023-05-13T16:43:28.038Z,17.50
2023-05-13T16:45:55.689Z,17.34
2023-05-13T16:48:23.548Z,17.36
2023-05-13T16:50:52.044Z,17.53
2023-05-13T16:53:22.048Z,17.35
2023-05-13T16:55:51.785Z,17.20
2023-05-13T16:58:19.514Z,17.09
2023-05-13T17:00:47.273Z,16.95
2023-05-13T17:03:15.661Z,16.93
2023-05-13T17:05:43.877Z,16.90
2023-05-13T17:08:11.579Z,16.84
2023-05-13T17:10:39.210Z,16.85
2023-05-13T17:13:08.429Z,16.82
2023-05-13T17:15:36.187Z,16.84
2023-05-13T17:18:04.356Z,16.84
2023-05-13T17:20:32.233Z,16.79
2023-05-13T17:23:01.104Z,16.69
2023-05-13T17:25:28.822Z,16.74
2023-05-13T17:27:56.527Z,16.69
2023-05-13T17:30:25.710Z,16.64
2023-05-13T17:32:54.297Z,16.61
2023-05-13T17:35:22.383Z,16.63
2023-05-13T17:37:50.080Z,16.65
2023-05-13T17:40:17.833Z,16.72
2023-05-13T17:42:45.948Z,16.69
2023-05-13T17:45:13.709Z,16.70
2023-05-13T17:47:42.888Z,16.83
2023-05-13T17:50:14.268Z,16.81
2023-05-13T17:52:42.144Z,16.72
2023-05-13T17:55:10.639Z,16.77
2023-05-13T17:57:38.714Z,16.74
2023-05-13T18:00:08.382Z,16.73
2023-05-13T18:02:37.347Z,16.73
2023-05-13T18:05:07.376Z,16.76
2023-05-13T18:07:35.463Z,16.74
2023-05-13T18:10:03.224Z,16.76
2023-05-13T18:12:31.118Z,16.70
2023-05-13T18:14:58.835Z,16.72
2023-05-13T18:17:27.533Z,16.67
2023-05-13T18:19:55.674Z,16.72
2023-05-13T18:22:24.926Z,16.78
2023-05-13T18:24:52.834Z,16.67
2023-05-13T18:27:21.491Z,16.46
2023-05-13T18:29:49.449Z,16.56
2023-05-13T18:32:17.221Z,16.51
2023-05-13T18:34:45.003Z,16.51
2023-05-13T18:37:14.848Z,16.41
2023-05-13T18:39:45.779Z,16.35
2023-05-13T18:42:14.081Z,16.27
2023-05-13T18:44:42.137Z,16.24
2023-05-13T18:47:10.988Z,16.28
2023-05-13T18:49:38.647Z,16.26
2023-05-13T18:52:06.914Z,16.19
2023-05-13T18:54:35.004Z,16.09
2023-05-13T18:57:04.401Z,16.09
2023-05-13T18:59:33.236Z,16.14
2023-05-13T19:02:01.887Z,16.14
2023-05-13T19:04:29.808Z,16.17
2023-05-13T19:06:58.041Z,16.11
2023-05-13T19:09:25.806Z,15.98
2023-05-13T19:11:53.886Z,15.95
2023-05-13T19:14:22.888Z,15.88
2023-05-13T19:16:50.798Z,15.86
2023-05-13T19:19:18.659Z,15.84
2023-05-13T19:21:46.405Z,15.86
2023-05-13T19:24:14.187Z,15.86
2023-05-13T19:26:42.223Z,15.85
2023-05-13T19:29:10.030Z,15.88
2023-05-13T19:31:39.103Z,15.83
2023-05-13T19:34:07.571Z,15.76
2023-05-13T19:36:35.621Z,15.79
2023-05-13T19:39:03.487Z,15.74
2023-05-13T19:41:31.192Z,15.66
2023-05-13T19:43:58.838Z,15.67
2023-05-13T19:46:27.180Z,15.63
2023-05-13T19:48:56.563Z,15.65
2023-05-13T19:51:24.329Z,15.63
2023-05-13T19:53:52.423Z,15.61
2023-05-13T19:56:21.754Z,15.60
2023-05-13T19:58:49.608Z,15.58
2023-05-13T20:01:17.360Z,15.53
2023-05-13T20:03:45.234Z,15.50
2023-05-13T20:06:14.390Z,15.45
2023-05-13T20:09:08.972Z,15.38
2023-05-13T20:11:36.757Z,15.32
2023-05-13T20:14:04.583Z,15.31
2023-05-13T20:16:32.927Z,15.27
2023-05-13T20:19:01.066Z,15.26
2023-05-13T20:21:30.908Z,15.26
2023-05-13T20:23:58.616Z,15.29
2023-05-13T20:26:26.454Z,15.26
2023-05-13T20:28:54.164Z,15.23
2023-05-13T20:31:22.659Z,15.19
2023-05-13T20:33:50.892Z,15.26
2023-05-13T20:36:18.615Z,15.17
2023-05-13T20:38:48.011Z,15.25
2023-05-13T20:41:15.801Z,15.26
2023-05-13T20:43:43.670Z,15.27
2023-05-13T20:46:16.548Z,15.30
2023-05-13T20:48:44.506Z,15.27
2023-05-13T20:51:12.303Z,15.22
2023-05-13T20:53:40.161Z,15.14
2023-05-13T20:56:09.913Z,15.16
2023-05-13T20:58:37.622Z,15.10
2023-05-13T21:01:05.342Z,15.10
2023-05-13T21:03:33.613Z,15.10
2023-05-13T21:06:01.383Z,15.10
2023-05-13T21:08:29.324Z,15.06
2023-05-13T21:10:57.681Z,15.00
2023-05-13T21:13:27.166Z,14.98
2023-05-13T21:15:55.628Z,14.84
2023-05-13T21:18:24.132Z,14.80
2023-05-13T21:21:08.712Z,14.68
2023-05-13T21:23:37.050Z,14.65
2023-05-13T21:26:06.321Z,14.63
2023-05-13T21:28:35.615Z,14.60
2023-05-13T21:31:03.384Z,14.60
2023-05-13T21:33:31.317Z,14.50
2023-05-13T21:35:59.114Z,14.41
2023-05-13T21:38:26.938Z,14.41
2023-05-13T21:40:54.536Z,14.45
2023-05-13T21:43:22.227Z,14.49
2023-05-13T21:45:51.528Z,14.51
2023-05-13T21:48:19.720Z,14.48
2023-05-13T21:50:47.465Z,14.37
2023-05-13T21:53:15.740Z,14.38
2023-05-13T21:55:44.680Z,14.35
2023-05-13T21:58:13.057Z,14.25
2023-05-13T22:00:41.751Z,14.28
2023-05-13T22:03:10.925Z,14.29
2023-05-13T22:05:44.132Z,14.33
2023-05-13T22:08:12.211Z,14.34
2023-05-13T22:10:40.949Z,14.42
2023-05-13T22:13:08.910Z,14.35
2023-05-13T22:15:36.732Z,14.34
2023-05-13T22:18:04.609Z,14.38
2023-05-13T22:20:33.620Z,14.43
2023-05-13T22:23:01.579Z,14.42
2023-05-13T22:25:29.476Z,14.38
2023-05-13T22:27:57.451Z,14.35
2023-05-13T22:30:25.615Z,14.36
2023-05-13T22:32:54.173Z,14.31
2023-05-13T22:35:22.285Z,14.27
2023-05-13T22:37:52.646Z,14.25
2023-05-13T22:40:21.300Z,14.24
2023-05-13T22:42:49.132Z,14.19
2023-05-13T22:45:17.426Z,14.03
2023-05-13T22:47:45.215Z,13.89
2023-05-13T22:50:13.288Z,13.84
2023-05-13T22:52:41.020Z,13.81
2023-05-13T22:55:11.000Z,13.77
2023-05-13T22:57:38.720Z,13.73
2023-05-13T23:00:07.701Z,13.68
2023-05-13T23:02:35.529Z,13.63
2023-05-13T23:05:03.169Z,13.54
2023-05-13T23:07:31.455Z,13.45
2023-05-13T23:09:59.178Z,13.52
2023-05-13T23:12:28.177Z,13.39
2023-05-13T23:14:57.369Z,13.35
2023-05-13T23:17:25.189Z,13.28
2023-05-13T23:19:53.381Z,13.23
2023-05-13T23:22:21.253Z,13.14
2023-05-13T23:24:49.590Z,13.04
2023-05-13T23:27:17.449Z,13.01
2023-05-13T23:29:46.644Z,13.03
2023-05-13T23:32:14.619Z,13.03
2023-05-13T23:34:42.725Z,13.03
2023-05-13T23:37:12.071Z,12.98
2023-05-13T23:39:40.550Z,13.05
2023-05-13T23:42:08.602Z,13.09
2023-05-13T23:44:37.185Z,13.03
2023-05-13T23:47:06.814Z,13.02
2023-05-13T23:49:34.787Z,13.03
2023-05-13T23:52:02.708Z,13.09
2023-05-13T23:54:31.191Z,13.01
2023-05-13T23:56:59.094Z,12.98
2023-05-13T23:59:27.331Z,13.02
